sensor_id;sensor_type;location;lat;lon;timestamp;P1;durP1;ratioP1;P2;durP2;ratioP2
1999;SDS011;1001;48.87406500;9.59633600;2023-03-11T00:01:49;1.87;;;1.67;;
1999;SDS011;1001;48.87406500;9.59633600;2023-03-11T00:04:16;1.25;;;1.15;;
1999;SDS011;1001;48.87406500;9.59633600;2023-03-11T00:06:43;1.55;;;1.20;;
1999;SDS011;1001;48.87406500;9.59633600;2023-03-11T00:09:09;1.00;;;0.90;;
1999;SDS011;1001;48.87406500;9.59633600;2023-03-11T00:11:36;1.60;;;1.23;;
1999;SDS011;1001;48.87406500;9.59633600;2023-03-11T00:14:03;2.85;;;1.60;;
1999;SDS011;1001;48.87406500;9.59633600;2023-03-11T00:16:29;2.50;;;1.37;;
1999;SDS011;1001;48.87406500;9.59633600;2023-03-11T00:18:57;2.13;;;1.37;;
1999;SDS011;1001;48.87406500;9.59633600;2023-03-11T00:21:24;1.97;;;1.70;;
1999;SDS011;1001;48.87406500;9.59633600;2023-03-11T00:23:50;3.25;;;1.60;;
1999;SDS011;1001;48.87406500;9.59633600;2023-03-11T00:26:17;1.52;;;1.25;;
1999;SDS011;1001;48.87406500;9.59633600;2023-03-11T00:28:44;1.73;;;1.30;;
1999;SDS011;1001;48.87406500;9.59633600;2023-03-11T00:31:12;2.00;;;1.00;;
1999;SDS011;1001;48.87406500;9.59633600;2023-03-11T00:33:39;1.40;;;1.30;;
1999;SDS011;1001;48.87406500;9.59633600;2023-03-11T00:36:10;1.63;;;0.88;;
1999;SDS011;1001;48.87406500;9.59633600;2023-03-11T00:38:47;1.65;;;1.15;;
1999;SDS011;1001;48.87406500;9.59633600;2023-03-11T00:41:14;1.77;;;1.27;;
1999;SDS011;1001;48.87406500;9.59633600;2023-03-11T00:43:40;2.83;;;1.60;;
1999;SDS011;1001;48.87406500;9.59633600;2023-03-11T00:46:07;1.50;;;1.30;;
1999;SDS011;1001;48.87406500;9.59633600;2023-03-11T00:48:34;1.73;;;1.50;;
1999;SDS011;1001;48.87406500;9.59633600;2023-03-11T00:51:01;1.65;;;1.55;;
1999;SDS011;1001;48.87406500;9.59633600;2023-03-11T00:53:29;2.13;;;1.40;;
1999;SDS011;1001;48.87406500;9.59633600;2023-03-11T00:55:55;1.50;;;1.25;;
1999;SDS011;1001;48.87406500;9.59633600;2023-03-11T00:58:22;1.27;;;0.98;;
1999;SDS011;1001;48.87406500;9.59633600;2023-03-11T01:00:52;1.92;;;1.65;;
1999;SDS011;1001;48.87406500;9.59633600;2023-03-11T01:03:18;1.80;;;1.50;;
1999;SDS011;1001;48.87406500;9.59633600;2023-03-11T01:05:45;3.07;;;1.70;;
1999;SDS011;1001;48.87406500;9.59633600;2023-03-11T01:08:12;1.92;;;1.65;;
1999;SDS011;1001;48.87406500;9.59633600;2023-03-11T01:10:40;2.10;;;1.90;;
1999;SDS011;1001;48.87406500;9.59633600;2023-03-11T01:13:06;2.40;;;1.48;;
1999;SDS011;1001;48.87406500;9.59633600;2023-03-11T01:15:33;2.17;;;1.77;;
1999;SDS011;1001;48.87406500;9.59633600;2023-03-11T01:18:02;3.75;;;2.10;;
1999;SDS011;1001;48.87406500;9.59633600;2023-03-11T01:20:29;3.92;;;1.73;;
1999;SDS011;1001;48.87406500;9.59633600;2023-03-11T01:22:56;2.22;;;1.45;;
1999;SDS011;1001;48.87406500;9.59633600;2023-03-11T01:25:23;3.33;;;1.67;;
1999;SDS011;1001;48.87406500;9.59633600;2023-03-11T01:27:51;3.37;;;1.77;;
1999;SDS011;1001;48.87406500;9.59633600;2023-03-11T01:30:18;2.83;;;2.20;;
1999;SDS011;1001;48.87406500;9.59633600;2023-03-11T01:32:46;2.20;;;1.50;;
1999;SDS011;1001;48.87406500;9.59633600;2023-03-11T01:35:13;1.60;;;1.10;;
1999;SDS011;1001;48.87406500;9.59633600;2023-03-11T01:37:41;1.30;;;1.05;;
1999;SDS011;1001;48.87406500;9.59633600;2023-03-11T01:40:10;1.67;;;1.30;;
1999;SDS011;1001;48.87406500;9.59633600;2023-03-11T01:42:41;2.75;;;1.00;;
1999;SDS011;1001;48.87406500;9.59633600;2023-03-11T01:45:17;1.95;;;1.00;;
1999;SDS011;1001;48.87406500;9.59633600;2023-03-11T01:47:58;1.45;;;0.70;;
1999;SDS011;1001;48.87406500;9.59633600;2023-03-11T01:50:24;1.50;;;1.17;;
1999;SDS011;1001;48.87406500;9.59633600;2023-03-11T01:52:55;2.65;;;0.80;;
1999;SDS011;1001;48.87406500;9.59633600;2023-03-11T01:55:22;0.80;;;0.60;;
1999;SDS011;1001;48.87406500;9.59633600;2023-03-11T01:57:49;1.55;;;1.10;;
1999;SDS011;1001;48.87406500;9.59633600;2023-03-11T02:00:19;4.93;;;1.02;;
1999;SDS011;1001;48.87406500;9.59633600;2023-03-11T02:02:47;0.60;;;0.60;;
1999;SDS011;1001;48.87406500;9.59633600;2023-03-11T02:05:17;0.73;;;0.55;;
1999;SDS011;1001;48.87406500;9.59633600;2023-03-11T02:07:45;1.50;;;0.75;;
1999;SDS011;1001;48.87406500;9.59633600;2023-03-11T02:10:12;0.80;;;0.60;;
1999;SDS011;1001;48.87406500;9.59633600;2023-03-11T02:12:39;3.42;;;0.90;;
1999;SDS011;1001;48.87406500;9.59633600;2023-03-11T02:15:06;1.15;;;0.75;;
1999;SDS011;1001;48.87406500;9.59633600;2023-03-11T02:17:36;1.88;;;0.80;;
1999;SDS011;1001;48.87406500;9.59633600;2023-03-11T02:20:07;1.40;;;0.88;;
1999;SDS011;1001;48.87406500;9.59633600;2023-03-11T02:22:41;3.20;;;1.05;;
1999;SDS011;1001;48.87406500;9.59633600;2023-03-11T02:25:10;1.38;;;0.60;;
1999;SDS011;1001;48.87406500;9.59633600;2023-03-11T02:27:46;2.38;;;0.75;;
1999;SDS011;1001;48.87406500;9.59633600;2023-03-11T02:30:16;1.20;;;0.80;;
1999;SDS011;1001;48.87406500;9.59633600;2023-03-11T02:32:44;2.35;;;0.70;;
1999;SDS011;1001;48.87406500;9.59633600;2023-03-11T02:35:13;2.05;;;0.85;;
1999;SDS011;1001;48.87406500;9.59633600;2023-03-11T02:37:44;1.92;;;0.95;;
1999;SDS011;1001;48.87406500;9.59633600;2023-03-11T02:43:05;0.57;;;0.50;;
1999;SDS011;1001;48.87406500;9.59633600;2023-03-11T02:45:34;1.80;;;0.77;;
1999;SDS011;1001;48.87406500;9.59633600;2023-03-11T02:48:04;0.80;;;0.70;;
1999;SDS011;1001;48.87406500;9.59633600;2023-03-11T02:50:32;1.00;;;0.70;;
1999;SDS011;1001;48.87406500;9.59633600;2023-03-11T02:53:01;11.25;;;0.90;;
1999;SDS011;1001;48.87406500;9.59633600;2023-03-11T02:55:28;1.60;;;0.77;;
1999;SDS011;1001;48.87406500;9.59633600;2023-03-11T02:57:55;0.85;;;0.73;;
1999;SDS011;1001;48.87406500;9.59633600;2023-03-11T03:00:23;3.55;;;0.85;;
1999;SDS011;1001;48.87406500;9.59633600;2023-03-11T03:02:49;2.95;;;0.60;;
1999;SDS011;1001;48.87406500;9.59633600;2023-03-11T03:05:16;1.35;;;0.80;;
1999;SDS011;1001;48.87406500;9.59633600;2023-03-11T03:07:44;1.17;;;0.70;;
1999;SDS011;1001;48.87406500;9.59633600;2023-03-11T03:10:12;0.95;;;0.75;;
1999;SDS011;1001;48.87406500;9.59633600;2023-03-11T03:12:39;1.10;;;0.88;;
1999;SDS011;1001;48.87406500;9.59633600;2023-03-11T03:15:06;0.80;;;0.60;;
1999;SDS011;1001;48.87406500;9.59633600;2023-03-11T03:17:35;2.08;;;0.90;;
1999;SDS011;1001;48.87406500;9.59633600;2023-03-11T03:20:02;3.65;;;1.05;;
1999;SDS011;1001;48.87406500;9.59633600;2023-03-11T03:22:31;1.98;;;0.90;;
1999;SDS011;1001;48.87406500;9.59633600;2023-03-11T03:24:58;1.25;;;0.93;;
1999;SDS011;1001;48.87406500;9.59633600;2023-03-11T03:27:24;2.88;;;1.38;;
1999;SDS011;1001;48.87406500;9.59633600;2023-03-11T03:29:51;1.23;;;1.00;;
1999;SDS011;1001;48.87406500;9.59633600;2023-03-11T03:32:17;1.33;;;1.00;;
1999;SDS011;1001;48.87406500;9.59633600;2023-03-11T03:34:45;1.20;;;1.10;;
1999;SDS011;1001;48.87406500;9.59633600;2023-03-11T03:37:12;4.22;;;1.42;;
1999;SDS011;1001;48.87406500;9.59633600;2023-03-11T03:39:38;4.05;;;0.93;;
1999;SDS011;1001;48.87406500;9.59633600;2023-03-11T03:42:05;3.13;;;1.63;;
1999;SDS011;1001;48.87406500;9.59633600;2023-03-11T03:44:32;8.80;;;1.30;;
1999;SDS011;1001;48.87406500;9.59633600;2023-03-11T03:46:59;3.25;;;1.27;;
1999;SDS011;1001;48.87406500;9.59633600;2023-03-11T03:49:25;1.48;;;1.10;;
1999;SDS011;1001;48.87406500;9.59633600;2023-03-11T03:51:53;4.65;;;1.40;;
1999;SDS011;1001;48.87406500;9.59633600;2023-03-11T03:54:20;4.25;;;1.85;;
1999;SDS011;1001;48.87406500;9.59633600;2023-03-11T03:56:46;3.47;;;1.50;;
1999;SDS011;1001;48.87406500;9.59633600;2023-03-11T03:59:13;7.05;;;2.00;;
1999;SDS011;1001;48.87406500;9.59633600;2023-03-11T04:01:39;2.88;;;1.30;;
1999;SDS011;1001;48.87406500;9.59633600;2023-03-11T04:04:06;1.35;;;1.20;;
1999;SDS011;1001;48.87406500;9.59633600;2023-03-11T04:06:33;4.13;;;1.23;;
1999;SDS011;1001;48.87406500;9.59633600;2023-03-11T04:09:00;2.58;;;1.40;;
1999;SDS011;1001;48.87406500;9.59633600;2023-03-11T04:11:27;4.90;;;1.17;;
1999;SDS011;1001;48.87406500;9.59633600;2023-03-11T04:13:54;3.08;;;1.42;;
1999;SDS011;1001;48.87406500;9.59633600;2023-03-11T04:16:21;6.65;;;1.83;;
1999;SDS011;1001;48.87406500;9.59633600;2023-03-11T04:18:49;5.10;;;1.50;;
1999;SDS011;1001;48.87406500;9.59633600;2023-03-11T04:21:15;2.50;;;1.50;;
1999;SDS011;1001;48.87406500;9.59633600;2023-03-11T04:23:42;1.52;;;1.17;;
1999;SDS011;1001;48.87406500;9.59633600;2023-03-11T04:26:10;3.47;;;1.40;;
1999;SDS011;1001;48.87406500;9.59633600;2023-03-11T04:28:36;1.52;;;1.25;;
1999;SDS011;1001;48.87406500;9.59633600;2023-03-11T04:31:03;2.22;;;1.10;;
1999;SDS011;1001;48.87406500;9.59633600;2023-03-11T04:33:30;1.05;;;0.95;;
1999;SDS011;1001;48.87406500;9.59633600;2023-03-11T04:35:57;3.80;;;1.10;;
1999;SDS011;1001;48.87406500;9.59633600;2023-03-11T04:38:23;7.57;;;1.58;;
1999;SDS011;1001;48.87406500;9.59633600;2023-03-11T04:40:50;3.50;;;1.05;;
1999;SDS011;1001;48.87406500;9.59633600;2023-03-11T04:43:18;4.18;;;1.65;;
1999;SDS011;1001;48.87406500;9.59633600;2023-03-11T04:45:44;4.05;;;1.10;;
1999;SDS011;1001;48.87406500;9.59633600;2023-03-11T04:48:15;3.30;;;1.05;;
1999;SDS011;1001;48.87406500;9.59633600;2023-03-11T04:50:41;1.10;;;0.82;;
1999;SDS011;1001;48.87406500;9.59633600;2023-03-11T04:53:08;3.17;;;1.20;;
1999;SDS011;1001;48.87406500;9.59633600;2023-03-11T04:55:34;1.30;;;1.20;;
1999;SDS011;1001;48.87406500;9.59633600;2023-03-11T04:58:01;1.98;;;1.13;;
1999;SDS011;1001;48.87406500;9.59633600;2023-03-11T05:00:29;1.33;;;1.23;;
1999;SDS011;1001;48.87406500;9.59633600;2023-03-11T05:02:56;1.40;;;1.00;;
1999;SDS011;1001;48.87406500;9.59633600;2023-03-11T05:05:22;2.20;;;1.08;;
1999;SDS011;1001;48.87406500;9.59633600;2023-03-11T05:07:49;1.33;;;1.05;;
1999;SDS011;1001;48.87406500;9.59633600;2023-03-11T05:10:16;2.17;;;1.20;;
1999;SDS011;1001;48.87406500;9.59633600;2023-03-11T05:12:46;4.00;;;1.10;;
1999;SDS011;1001;48.87406500;9.59633600;2023-03-11T05:15:13;2.45;;;0.80;;
1999;SDS011;1001;48.87406500;9.59633600;2023-03-11T05:17:41;2.08;;;1.10;;
1999;SDS011;1001;48.87406500;9.59633600;2023-03-11T05:20:08;2.00;;;1.35;;
1999;SDS011;1001;48.87406500;9.59633600;2023-03-11T05:22:35;1.65;;;1.20;;
1999;SDS011;1001;48.87406500;9.59633600;2023-03-11T05:25:02;1.60;;;1.10;;
1999;SDS011;1001;48.87406500;9.59633600;2023-03-11T05:27:29;1.73;;;1.25;;
1999;SDS011;1001;48.87406500;9.59633600;2023-03-11T05:29:56;3.38;;;1.40;;
1999;SDS011;1001;48.87406500;9.59633600;2023-03-11T05:32:23;4.70;;;0.82;;
1999;SDS011;1001;48.87406500;9.59633600;2023-03-11T05:34:51;2.85;;;1.05;;
1999;SDS011;1001;48.87406500;9.59633600;2023-03-11T05:37:18;1.70;;;1.10;;
1999;SDS011;1001;48.87406500;9.59633600;2023-03-11T05:39:44;1.50;;;0.85;;
1999;SDS011;1001;48.87406500;9.59633600;2023-03-11T05:42:11;2.60;;;1.02;;
1999;SDS011;1001;48.87406500;9.59633600;2023-03-11T05:44:37;5.45;;;1.83;;
1999;SDS011;1001;48.87406500;9.59633600;2023-03-11T05:47:05;3.10;;;1.58;;
1999;SDS011;1001;48.87406500;9.59633600;2023-03-11T05:49:32;3.75;;;1.45;;
1999;SDS011;1001;48.87406500;9.59633600;2023-03-11T05:52:00;1.83;;;1.23;;
1999;SDS011;1001;48.87406500;9.59633600;2023-03-11T05:54:27;2.08;;;1.08;;
1999;SDS011;1001;48.87406500;9.59633600;2023-03-11T05:56:53;1.70;;;1.38;;
1999;SDS011;1001;48.87406500;9.59633600;2023-03-11T05:59:20;2.28;;;1.38;;
1999;SDS011;1001;48.87406500;9.59633600;2023-03-11T06:01:47;2.08;;;1.40;;
1999;SDS011;1001;48.87406500;9.59633600;2023-03-11T06:04:13;1.60;;;1.50;;
1999;SDS011;1001;48.87406500;9.59633600;2023-03-11T06:06:40;1.55;;;1.20;;
1999;SDS011;1001;48.87406500;9.59633600;2023-03-11T06:09:09;2.40;;;1.70;;
1999;SDS011;1001;48.87406500;9.59633600;2023-03-11T06:11:37;3.92;;;3.00;;
1999;SDS011;1001;48.87406500;9.59633600;2023-03-11T06:14:04;1.33;;;1.20;;
1999;SDS011;1001;48.87406500;9.59633600;2023-03-11T06:16:30;4.30;;;1.88;;
1999;SDS011;1001;48.87406500;9.59633600;2023-03-11T06:18:57;4.82;;;1.35;;
1999;SDS011;1001;48.87406500;9.59633600;2023-03-11T06:21:25;3.42;;;1.60;;
1999;SDS011;1001;48.87406500;9.59633600;2023-03-11T06:23:51;3.65;;;1.67;;
1999;SDS011;1001;48.87406500;9.59633600;2023-03-11T06:26:20;3.13;;;1.15;;
1999;SDS011;1001;48.87406500;9.59633600;2023-03-11T06:28:48;2.10;;;1.38;;
1999;SDS011;1001;48.87406500;9.59633600;2023-03-11T06:31:17;2.95;;;1.60;;
1999;SDS011;1001;48.87406500;9.59633600;2023-03-11T06:33:45;5.40;;;1.48;;
1999;SDS011;1001;48.87406500;9.59633600;2023-03-11T06:36:13;2.23;;;1.40;;
1999;SDS011;1001;48.87406500;9.59633600;2023-03-11T06:38:40;6.68;;;1.83;;
1999;SDS011;1001;48.87406500;9.59633600;2023-03-11T06:41:08;3.43;;;1.97;;
1999;SDS011;1001;48.87406500;9.59633600;2023-03-11T06:43:37;4.47;;;1.50;;
1999;SDS011;1001;48.87406500;9.59633600;2023-03-11T06:46:07;6.15;;;1.85;;
1999;SDS011;1001;48.87406500;9.59633600;2023-03-11T06:48:34;3.25;;;1.40;;
1999;SDS011;1001;48.87406500;9.59633600;2023-03-11T06:51:01;4.93;;;1.75;;
1999;SDS011;1001;48.87406500;9.59633600;2023-03-11T06:53:28;5.72;;;2.05;;
1999;SDS011;1001;48.87406500;9.59633600;2023-03-11T06:55:59;2.37;;;1.20;;
1999;SDS011;1001;48.87406500;9.59633600;2023-03-11T06:58:26;2.93;;;1.23;;
1999;SDS011;1001;48.87406500;9.59633600;2023-03-11T07:00:58;2.00;;;1.20;;
1999;SDS011;1001;48.87406500;9.59633600;2023-03-11T07:03:26;2.40;;;1.50;;
1999;SDS011;1001;48.87406500;9.59633600;2023-03-11T07:05:52;2.40;;;1.23;;
1999;SDS011;1001;48.87406500;9.59633600;2023-03-11T07:08:19;3.43;;;1.57;;
1999;SDS011;1001;48.87406500;9.59633600;2023-03-11T07:10:45;5.90;;;1.13;;
1999;SDS011;1001;48.87406500;9.59633600;2023-03-11T07:13:13;1.88;;;1.20;;
1999;SDS011;1001;48.87406500;9.59633600;2023-03-11T07:15:40;4.37;;;1.40;;
1999;SDS011;1001;48.87406500;9.59633600;2023-03-11T07:18:08;4.43;;;1.50;;
1999;SDS011;1001;48.87406500;9.59633600;2023-03-11T07:20:34;7.00;;;1.70;;
1999;SDS011;1001;48.87406500;9.59633600;2023-03-11T07:23:01;4.53;;;2.30;;
1999;SDS011;1001;48.87406500;9.59633600;2023-03-11T07:25:27;3.73;;;1.97;;
1999;SDS011;1001;48.87406500;9.59633600;2023-03-11T07:27:54;2.60;;;1.30;;
1999;SDS011;1001;48.87406500;9.59633600;2023-03-11T07:30:20;5.00;;;1.87;;
1999;SDS011;1001;48.87406500;9.59633600;2023-03-11T07:32:47;2.13;;;1.90;;
1999;SDS011;1001;48.87406500;9.59633600;2023-03-11T07:35:15;3.85;;;1.45;;
1999;SDS011;1001;48.87406500;9.59633600;2023-03-11T07:37:42;4.83;;;1.90;;
1999;SDS011;1001;48.87406500;9.59633600;2023-03-11T07:40:09;1.70;;;1.30;;
1999;SDS011;1001;48.87406500;9.59633600;2023-03-11T07:42:36;3.50;;;1.70;;
1999;SDS011;1001;48.87406500;9.59633600;2023-03-11T07:45:04;4.50;;;1.67;;
1999;SDS011;1001;48.87406500;9.59633600;2023-03-11T07:47:31;2.30;;;1.60;;
1999;SDS011;1001;48.87406500;9.59633600;2023-03-11T07:49:58;3.90;;;1.77;;
1999;SDS011;1001;48.87406500;9.59633600;2023-03-11T07:52:28;7.17;;;1.67;;
1999;SDS011;1001;48.87406500;9.59633600;2023-03-11T07:54:56;4.03;;;1.70;;
1999;SDS011;1001;48.87406500;9.59633600;2023-03-11T07:57:22;3.33;;;1.50;;
1999;SDS011;1001;48.87406500;9.59633600;2023-03-11T07:59:49;3.30;;;1.57;;
1999;SDS011;1001;48.87406500;9.59633600;2023-03-11T08:02:15;3.90;;;1.63;;
1999;SDS011;1001;48.87406500;9.59633600;2023-03-11T08:04:42;2.00;;;0.97;;
1999;SDS011;1001;48.87406500;9.59633600;2023-03-11T08:07:09;7.50;;;1.43;;
1999;SDS011;1001;48.87406500;9.59633600;2023-03-11T08:09:37;4.37;;;1.73;;
1999;SDS011;1001;48.87406500;9.59633600;2023-03-11T08:12:03;5.33;;;2.27;;
1999;SDS011;1001;48.87406500;9.59633600;2023-03-11T08:14:30;3.43;;;1.50;;
1999;SDS011;1001;48.87406500;9.59633600;2023-03-11T08:16:57;3.40;;;1.60;;
1999;SDS011;1001;48.87406500;9.59633600;2023-03-11T08:19:23;4.50;;;1.50;;
1999;SDS011;1001;48.87406500;9.59633600;2023-03-11T08:21:50;3.20;;;1.50;;
1999;SDS011;1001;48.87406500;9.59633600;2023-03-11T08:24:16;4.37;;;1.70;;
1999;SDS011;1001;48.87406500;9.59633600;2023-03-11T08:26:44;6.50;;;1.97;;
1999;SDS011;1001;48.87406500;9.59633600;2023-03-11T08:29:11;4.80;;;2.13;;
1999;SDS011;1001;48.87406500;9.59633600;2023-03-11T08:31:37;4.00;;;1.60;;
1999;SDS011;1001;48.87406500;9.59633600;2023-03-11T08:34:05;2.20;;;1.83;;
1999;SDS011;1001;48.87406500;9.59633600;2023-03-11T08:36:33;3.10;;;1.70;;
1999;SDS011;1001;48.87406500;9.59633600;2023-03-11T08:38:59;3.30;;;1.60;;
1999;SDS011;1001;48.87406500;9.59633600;2023-03-11T08:41:26;3.10;;;1.50;;
1999;SDS011;1001;48.87406500;9.59633600;2023-03-11T08:43:54;1.80;;;1.37;;
1999;SDS011;1001;48.87406500;9.59633600;2023-03-11T08:46:22;17.33;;;3.00;;
1999;SDS011;1001;48.87406500;9.59633600;2023-03-11T08:48:50;6.80;;;1.70;;
1999;SDS011;1001;48.87406500;9.59633600;2023-03-11T08:51:17;5.77;;;2.00;;
1999;SDS011;1001;48.87406500;9.59633600;2023-03-11T08:53:44;3.83;;;2.17;;
1999;SDS011;1001;48.87406500;9.59633600;2023-03-11T08:56:11;3.90;;;1.57;;
1999;SDS011;1001;48.87406500;9.59633600;2023-03-11T08:58:38;4.40;;;2.03;;
1999;SDS011;1001;48.87406500;9.59633600;2023-03-11T09:01:06;5.17;;;1.80;;
1999;SDS011;1001;48.87406500;9.59633600;2023-03-11T09:03:34;3.10;;;1.73;;
1999;SDS011;1001;48.87406500;9.59633600;2023-03-11T09:06:01;4.50;;;1.70;;
1999;SDS011;1001;48.87406500;9.59633600;2023-03-11T09:08:31;5.93;;;1.43;;
1999;SDS011;1001;48.87406500;9.59633600;2023-03-11T09:10:57;3.27;;;2.30;;
1999;SDS011;1001;48.87406500;9.59633600;2023-03-11T09:13:24;2.60;;;2.30;;
1999;SDS011;1001;48.87406500;9.59633600;2023-03-11T09:15:51;3.70;;;3.40;;
1999;SDS011;1001;48.87406500;9.59633600;2023-03-11T09:18:19;5.83;;;2.47;;
1999;SDS011;1001;48.87406500;9.59633600;2023-03-11T09:20:46;4.00;;;1.87;;
1999;SDS011;1001;48.87406500;9.59633600;2023-03-11T09:23:13;2.30;;;1.27;;
1999;SDS011;1001;48.87406500;9.59633600;2023-03-11T09:25:41;3.57;;;1.70;;
1999;SDS011;1001;48.87406500;9.59633600;2023-03-11T09:28:08;3.43;;;1.47;;
1999;SDS011;1001;48.87406500;9.59633600;2023-03-11T09:30:35;5.90;;;2.10;;
1999;SDS011;1001;48.87406500;9.59633600;2023-03-11T09:33:01;3.83;;;2.33;;
1999;SDS011;1001;48.87406500;9.59633600;2023-03-11T09:35:29;5.87;;;1.60;;
1999;SDS011;1001;48.87406500;9.59633600;2023-03-11T09:37:56;1.97;;;1.50;;
1999;SDS011;1001;48.87406500;9.59633600;2023-03-11T09:40:22;2.17;;;1.30;;
1999;SDS011;1001;48.87406500;9.59633600;2023-03-11T09:42:55;4.67;;;1.87;;
1999;SDS011;1001;48.87406500;9.59633600;2023-03-11T09:45:32;3.77;;;1.47;;
1999;SDS011;1001;48.87406500;9.59633600;2023-03-11T09:48:06;6.87;;;2.20;;
1999;SDS011;1001;48.87406500;9.59633600;2023-03-11T09:50:46;3.10;;;1.93;;
1999;SDS011;1001;48.87406500;9.59633600;2023-03-11T09:53:28;4.13;;;1.90;;
1999;SDS011;1001;48.87406500;9.59633600;2023-03-11T09:56:02;5.40;;;1.90;;
1999;SDS011;1001;48.87406500;9.59633600;2023-03-11T09:58:35;5.70;;;2.10;;
1999;SDS011;1001;48.87406500;9.59633600;2023-03-11T10:01:08;4.27;;;1.80;;
1999;SDS011;1001;48.87406500;9.59633600;2023-03-11T10:03:41;3.27;;;1.97;;
1999;SDS011;1001;48.87406500;9.59633600;2023-03-11T10:06:14;6.93;;;1.80;;
1999;SDS011;1001;48.87406500;9.59633600;2023-03-11T10:08:46;2.13;;;1.43;;
1999;SDS011;1001;48.87406500;9.59633600;2023-03-11T10:14:12;3.33;;;1.37;;
1999;SDS011;1001;48.87406500;9.59633600;2023-03-11T10:16:51;1.87;;;1.43;;
1999;SDS011;1001;48.87406500;9.59633600;2023-03-11T10:19:29;3.30;;;1.43;;
1999;SDS011;1001;48.87406500;9.59633600;2023-03-11T10:22:04;4.80;;;1.90;;
1999;SDS011;1001;48.87406500;9.59633600;2023-03-11T10:24:42;4.10;;;1.40;;
1999;SDS011;1001;48.87406500;9.59633600;2023-03-11T10:27:19;2.37;;;1.40;;
1999;SDS011;1001;48.87406500;9.59633600;2023-03-11T10:29:52;9.27;;;1.83;;
1999;SDS011;1001;48.87406500;9.59633600;2023-03-11T10:32:26;2.03;;;1.30;;
1999;SDS011;1001;48.87406500;9.59633600;2023-03-11T10:35:03;2.40;;;1.43;;
1999;SDS011;1001;48.87406500;9.59633600;2023-03-11T10:37:39;2.53;;;1.70;;
1999;SDS011;1001;48.87406500;9.59633600;2023-03-11T10:40:14;1.50;;;1.33;;
1999;SDS011;1001;48.87406500;9.59633600;2023-03-11T10:42:45;4.13;;;1.23;;
1999;SDS011;1001;48.87406500;9.59633600;2023-03-11T10:45:13;2.57;;;1.50;;
1999;SDS011;1001;48.87406500;9.59633600;2023-03-11T10:47:40;1.83;;;1.23;;
1999;SDS011;1001;48.87406500;9.59633600;2023-03-11T10:50:08;1.20;;;0.90;;
1999;SDS011;1001;48.87406500;9.59633600;2023-03-11T10:52:42;1.40;;;1.00;;
1999;SDS011;1001;48.87406500;9.59633600;2023-03-11T10:55:28;3.43;;;1.37;;
1999;SDS011;1001;48.87406500;9.59633600;2023-03-11T10:58:00;1.50;;;1.23;;
1999;SDS011;1001;48.87406500;9.59633600;2023-03-11T11:00:30;1.73;;;1.13;;
1999;SDS011;1001;48.87406500;9.59633600;2023-03-11T11:02:57;2.50;;;1.00;;
1999;SDS011;1001;48.87406500;9.59633600;2023-03-11T11:05:28;3.30;;;1.00;;
1999;SDS011;1001;48.87406500;9.59633600;2023-03-11T11:08:05;1.27;;;0.70;;
1999;SDS011;1001;48.87406500;9.59633600;2023-03-11T11:10:33;2.60;;;1.00;;
1999;SDS011;1001;48.87406500;9.59633600;2023-03-11T11:13:02;1.93;;;0.83;;
1999;SDS011;1001;48.87406500;9.59633600;2023-03-11T11:15:49;6.33;;;1.30;;
1999;SDS011;1001;48.87406500;9.59633600;2023-03-11T11:18:18;1.07;;;0.97;;
1999;SDS011;1001;48.87406500;9.59633600;2023-03-11T11:20:51;1.60;;;1.00;;
1999;SDS011;1001;48.87406500;9.59633600;2023-03-11T11:23:24;1.80;;;1.27;;
1999;SDS011;1001;48.87406500;9.59633600;2023-03-11T11:25:56;6.17;;;1.20;;
1999;SDS011;1001;48.87406500;9.59633600;2023-03-11T11:28:25;1.43;;;1.33;;
1999;SDS011;1001;48.87406500;9.59633600;2023-03-11T11:30:52;1.63;;;1.17;;
1999;SDS011;1001;48.87406500;9.59633600;2023-03-11T11:33:22;2.17;;;1.03;;
1999;SDS011;1001;48.87406500;9.59633600;2023-03-11T11:35:51;1.83;;;1.03;;
1999;SDS011;1001;48.87406500;9.59633600;2023-03-11T11:38:20;8.13;;;1.40;;
1999;SDS011;1001;48.87406500;9.59633600;2023-03-11T11:40:50;2.10;;;1.10;;
1999;SDS011;1001;48.87406500;9.59633600;2023-03-11T11:43:18;1.40;;;0.83;;
1999;SDS011;1001;48.87406500;9.59633600;2023-03-11T11:45:58;1.57;;;0.90;;
1999;SDS011;1001;48.87406500;9.59633600;2023-03-11T11:48:28;1.37;;;1.10;;
1999;SDS011;1001;48.87406500;9.59633600;2023-03-11T11:51:01;3.67;;;1.07;;
1999;SDS011;1001;48.87406500;9.59633600;2023-03-11T11:53:35;2.60;;;1.27;;
1999;SDS011;1001;48.87406500;9.59633600;2023-03-11T11:56:06;2.00;;;1.40;;
1999;SDS011;1001;48.87406500;9.59633600;2023-03-11T11:58:38;1.80;;;1.00;;
1999;SDS011;1001;48.87406500;9.59633600;2023-03-11T12:01:15;1.50;;;0.63;;
1999;SDS011;1001;48.87406500;9.59633600;2023-03-11T12:06:44;1.83;;;0.97;;
1999;SDS011;1001;48.87406500;9.59633600;2023-03-11T12:09:17;2.00;;;0.73;;
1999;SDS011;1001;48.87406500;9.59633600;2023-03-11T12:11:53;2.37;;;1.00;;
1999;SDS011;1001;48.87406500;9.59633600;2023-03-11T12:14:29;1.87;;;1.10;;
1999;SDS011;1001;48.87406500;9.59633600;2023-03-11T12:17:04;3.47;;;1.40;;
1999;SDS011;1001;48.87406500;9.59633600;2023-03-11T12:19:36;2.20;;;0.90;;
1999;SDS011;1001;48.87406500;9.59633600;2023-03-11T12:22:22;2.70;;;1.17;;
1999;SDS011;1001;48.87406500;9.59633600;2023-03-11T12:27:58;1.83;;;0.90;;
1999;SDS011;1001;48.87406500;9.59633600;2023-03-11T12:30:35;3.53;;;1.00;;
1999;SDS011;1001;48.87406500;9.59633600;2023-03-11T12:33:09;3.73;;;1.10;;
1999;SDS011;1001;48.87406500;9.59633600;2023-03-11T12:35:42;2.93;;;0.97;;
1999;SDS011;1001;48.87406500;9.59633600;2023-03-11T12:38:15;2.00;;;1.13;;
1999;SDS011;1001;48.87406500;9.59633600;2023-03-11T12:40:47;2.50;;;1.30;;
1999;SDS011;1001;48.87406500;9.59633600;2023-03-11T12:49:42;2.90;;;1.20;;
1999;SDS011;1001;48.87406500;9.59633600;2023-03-11T12:52:20;1.63;;;0.93;;
1999;SDS011;1001;48.87406500;9.59633600;2023-03-11T12:57:55;2.87;;;1.20;;
1999;SDS011;1001;48.87406500;9.59633600;2023-03-11T13:00:27;1.40;;;1.00;;
1999;SDS011;1001;48.87406500;9.59633600;2023-03-11T13:03:24;1.40;;;1.20;;
1999;SDS011;1001;48.87406500;9.59633600;2023-03-11T13:06:04;3.93;;;1.00;;
1999;SDS011;1001;48.87406500;9.59633600;2023-03-11T13:08:43;8.97;;;1.07;;
1999;SDS011;1001;48.87406500;9.59633600;2023-03-11T13:11:28;4.47;;;1.40;;
1999;SDS011;1001;48.87406500;9.59633600;2023-03-11T13:14:15;4.73;;;1.20;;
1999;SDS011;1001;48.87406500;9.59633600;2023-03-11T13:16:54;1.80;;;1.47;;
1999;SDS011;1001;48.87406500;9.59633600;2023-03-11T13:25:34;6.33;;;1.40;;
1999;SDS011;1001;48.87406500;9.59633600;2023-03-11T13:28:13;3.13;;;1.10;;
1999;SDS011;1001;48.87406500;9.59633600;2023-03-11T13:30:54;2.53;;;0.90;;
1999;SDS011;1001;48.87406500;9.59633600;2023-03-11T13:33:36;2.90;;;1.80;;
1999;SDS011;1001;48.87406500;9.59633600;2023-03-11T13:36:20;2.20;;;1.20;;
1999;SDS011;1001;48.87406500;9.59633600;2023-03-11T13:39:05;2.40;;;1.00;;
1999;SDS011;1001;48.87406500;9.59633600;2023-03-11T13:41:53;1.27;;;1.13;;
1999;SDS011;1001;48.87406500;9.59633600;2023-03-11T13:44:23;1.83;;;1.10;;
1999;SDS011;1001;48.87406500;9.59633600;2023-03-11T13:46:56;3.20;;;1.30;;
1999;SDS011;1001;48.87406500;9.59633600;2023-03-11T13:49:29;2.50;;;1.57;;
1999;SDS011;1001;48.87406500;9.59633600;2023-03-11T13:52:02;2.17;;;1.20;;